MBS International Airport
KMBS : now visible

Airfield :











YOU CAN JOIN US ON...

 
LOGIN :

Register | Disclaimer

   EN    FR    IT 

 









Legend :    VFR   Marginal VFR   IFR   Intensive IFR   Very Intensive IFR
Visi :
Ceiling :
>= 8 km
>= 3000ft
5 to 8 km
1000 to 3000 ft
1500m to 5 km
500 to 1000 ft
800 to 1500m
200 to 500 ft
< 800m
< 200 ft
Symbols :   Thunderstorms  Fog  Heavy snow  Heavy precipitations  Wind > 20 kt







- Airport Elevation : 668 ft
- IATA code : MBS


KMBS - MBS International

CURRENT METAR :
  • 160253Z AUTO 07007KT 10SM OVC022 15/09 A2989 RMK AO2 SLP121 T01500089 53009

EXPIRED METARs :
  • 160153Z 06007KT 10SM OVC023 15/13 A2988 RMK AO2 SLP117 T01500128
  • 160130Z 06008KT 10SM FEW009 OVC023 15/13 A2987 RMK AO2 T01500133
  • 160115Z 05009KT 10SM FEW010 OVC024 15/14 A2987 RMK AO2 T01500139
  • 160053Z 05008KT 10SM BKN009 OVC024 15/14 A2987 RMK AO2 CIG 009V013 SLP115 T01500139
  • 160015Z 05006KT 10SM BKN010 OVC024 16/14 A2987 RMK AO2 T01560144

TAF KMBS
Valid from the 16 at 00:00 until the 17 at 00:00 UTC


152320Z 1600/1624 05008KT P6SM SCT012 OVC035
FM161000 06005KT P6SM BKN035
FM161400 05008KT P6SM OVC025
FM162000 04012KT P6SM BKN025 OVC035
KZOB FIR / North America



MET'MAP, your aeronautical weather chart ! - Copyright ORBIFLY December 2007 - Disclaimer

ORBIFLY MET'MAP TEAM :

Programming & Development : Alexandra Zaïnal
Concept & Development : Baudouin d'Aumeries
Co-Development & Prog : Marc-Olivier Méhu
Technical & hardware support : Manuel Goepfert

Contact : metmap@orbifly.com




SOURCES & CREDITS :

   NOAA       Earth
Advisory